sensor_id;sensor_type;location;lat;lon;timestamp;P1;durP1;ratioP1;P2;durP2;ratioP2
840;SDS011;406;48.566;13.450;2024-03-08T00:00:16;14.82;;;9.57;;
840;SDS011;406;48.566;13.450;2024-03-08T00:02:45;14.63;;;9.60;;
840;SDS011;406;48.566;13.450;2024-03-08T00:05:12;17.67;;;10.88;;
840;SDS011;406;48.566;13.450;2024-03-08T00:07:41;15.52;;;10.00;;
840;SDS011;406;48.566;13.450;2024-03-08T00:10:09;20.15;;;9.60;;
840;SDS011;406;48.566;13.450;2024-03-08T00:12:42;13.45;;;7.82;;
840;SDS011;406;48.566;13.450;2024-03-08T00:15:10;12.95;;;7.32;;
840;SDS011;406;48.566;13.450;2024-03-08T00:17:40;15.18;;;8.73;;
840;SDS011;406;48.566;13.450;2024-03-08T00:20:07;15.45;;;8.25;;
840;SDS011;406;48.566;13.450;2024-03-08T00:22:35;14.73;;;8.73;;
840;SDS011;406;48.566;13.450;2024-03-08T00:25:02;14.40;;;7.35;;
840;SDS011;406;48.566;13.450;2024-03-08T00:27:29;12.88;;;8.07;;
840;SDS011;406;48.566;13.450;2024-03-08T00:30:00;15.35;;;9.32;;
840;SDS011;406;48.566;13.450;2024-03-08T00:32:27;19.23;;;10.82;;
840;SDS011;406;48.566;13.450;2024-03-08T00:34:54;19.63;;;10.15;;
840;SDS011;406;48.566;13.450;2024-03-08T00:37:20;16.58;;;9.18;;
840;SDS011;406;48.566;13.450;2024-03-08T00:39:51;20.58;;;10.18;;
840;SDS011;406;48.566;13.450;2024-03-08T00:42:18;21.77;;;8.60;;
840;SDS011;406;48.566;13.450;2024-03-08T00:44:45;21.30;;;12.13;;
840;SDS011;406;48.566;13.450;2024-03-08T00:47:12;20.60;;;10.25;;
840;SDS011;406;48.566;13.450;2024-03-08T00:49:40;19.10;;;9.55;;
840;SDS011;406;48.566;13.450;2024-03-08T00:52:07;26.58;;;11.43;;
840;SDS011;406;48.566;13.450;2024-03-08T00:54:34;15.68;;;9.07;;
840;SDS011;406;48.566;13.450;2024-03-08T00:57:02;17.10;;;9.25;;
840;SDS011;406;48.566;13.450;2024-03-08T00:59:29;17.42;;;9.18;;
840;SDS011;406;48.566;13.450;2024-03-08T01:01:59;22.15;;;10.07;;
840;SDS011;406;48.566;13.450;2024-03-08T01:04:28;17.02;;;8.95;;
840;SDS011;406;48.566;13.450;2024-03-08T01:06:56;15.70;;;8.55;;
840;SDS011;406;48.566;13.450;2024-03-08T01:09:23;12.40;;;7.57;;
840;SDS011;406;48.566;13.450;2024-03-08T01:11:50;18.17;;;9.65;;
840;SDS011;406;48.566;13.450;2024-03-08T01:14:17;18.15;;;10.82;;
840;SDS011;406;48.566;13.450;2024-03-08T01:16:43;20.17;;;10.55;;
840;SDS011;406;48.566;13.450;2024-03-08T01:19:10;18.45;;;9.55;;
840;SDS011;406;48.566;13.450;2024-03-08T01:21:37;20.70;;;10.85;;
840;SDS011;406;48.566;13.450;2024-03-08T01:24:03;19.63;;;12.10;;
840;SDS011;406;48.566;13.450;2024-03-08T01:26:30;19.00;;;9.90;;
840;SDS011;406;48.566;13.450;2024-03-08T01:28:57;16.63;;;10.93;;
840;SDS011;406;48.566;13.450;2024-03-08T01:31:23;18.75;;;10.90;;
840;SDS011;406;48.566;13.450;2024-03-08T01:33:50;23.25;;;12.32;;
840;SDS011;406;48.566;13.450;2024-03-08T01:36:16;16.25;;;10.70;;
840;SDS011;406;48.566;13.450;2024-03-08T01:38:45;19.13;;;10.73;;
840;SDS011;406;48.566;13.450;2024-03-08T01:41:12;21.27;;;11.75;;
840;SDS011;406;48.566;13.450;2024-03-08T01:43:39;22.00;;;11.85;;
840;SDS011;406;48.566;13.450;2024-03-08T01:46:06;16.88;;;10.90;;
840;SDS011;406;48.566;13.450;2024-03-08T01:48:34;18.05;;;10.45;;
840;SDS011;406;48.566;13.450;2024-03-08T01:51:01;18.15;;;10.00;;
840;SDS011;406;48.566;13.450;2024-03-08T01:53:28;23.95;;;11.52;;
840;SDS011;406;48.566;13.450;2024-03-08T01:55:56;21.33;;;11.20;;
840;SDS011;406;48.566;13.450;2024-03-08T01:58:24;33.03;;;11.07;;
840;SDS011;406;48.566;13.450;2024-03-08T02:00:54;20.50;;;12.70;;
840;SDS011;406;48.566;13.450;2024-03-08T02:03:22;20.13;;;12.23;;
840;SDS011;406;48.566;13.450;2024-03-08T02:05:49;20.10;;;10.45;;
840;SDS011;406;48.566;13.450;2024-03-08T02:08:15;25.38;;;11.57;;
840;SDS011;406;48.566;13.450;2024-03-08T02:10:45;23.38;;;11.00;;
840;SDS011;406;48.566;13.450;2024-03-08T02:13:12;18.98;;;11.85;;
840;SDS011;406;48.566;13.450;2024-03-08T02:15:55;23.33;;;10.80;;
840;SDS011;406;48.566;13.450;2024-03-08T02:18:22;19.15;;;10.75;;
840;SDS011;406;48.566;13.450;2024-03-08T02:20:50;22.85;;;10.82;;
840;SDS011;406;48.566;13.450;2024-03-08T02:23:20;20.73;;;12.27;;
840;SDS011;406;48.566;13.450;2024-03-08T02:25:47;23.60;;;13.52;;
840;SDS011;406;48.566;13.450;2024-03-08T02:28:14;31.85;;;15.55;;
840;SDS011;406;48.566;13.450;2024-03-08T02:30:41;21.50;;;13.30;;
840;SDS011;406;48.566;13.450;2024-03-08T02:33:07;26.27;;;13.70;;
840;SDS011;406;48.566;13.450;2024-03-08T02:35:37;28.05;;;15.60;;
840;SDS011;406;48.566;13.450;2024-03-08T02:38:05;26.70;;;14.68;;
840;SDS011;406;48.566;13.450;2024-03-08T02:40:31;22.00;;;13.13;;
840;SDS011;406;48.566;13.450;2024-03-08T02:42:58;21.05;;;11.63;;
840;SDS011;406;48.566;13.450;2024-03-08T02:45:24;21.05;;;12.40;;
840;SDS011;406;48.566;13.450;2024-03-08T02:47:51;23.02;;;11.43;;
840;SDS011;406;48.566;13.450;2024-03-08T02:50:18;22.05;;;13.38;;
840;SDS011;406;48.566;13.450;2024-03-08T02:52:44;20.73;;;11.00;;
840;SDS011;406;48.566;13.450;2024-03-08T02:55:12;20.77;;;9.70;;
840;SDS011;406;48.566;13.450;2024-03-08T02:57:42;26.80;;;12.48;;
840;SDS011;406;48.566;13.450;2024-03-08T03:00:10;17.85;;;10.60;;
840;SDS011;406;48.566;13.450;2024-03-08T03:02:37;20.85;;;13.55;;
840;SDS011;406;48.566;13.450;2024-03-08T03:05:04;27.35;;;11.23;;
840;SDS011;406;48.566;13.450;2024-03-08T03:07:32;18.35;;;10.32;;
840;SDS011;406;48.566;13.450;2024-03-08T03:10:02;21.92;;;10.30;;
840;SDS011;406;48.566;13.450;2024-03-08T03:12:28;25.85;;;12.52;;
840;SDS011;406;48.566;13.450;2024-03-08T03:14:55;22.73;;;11.88;;
840;SDS011;406;48.566;13.450;2024-03-08T03:17:26;25.20;;;13.13;;
840;SDS011;406;48.566;13.450;2024-03-08T03:19:53;27.45;;;16.23;;
840;SDS011;406;48.566;13.450;2024-03-08T03:22:19;21.67;;;14.20;;
840;SDS011;406;48.566;13.450;2024-03-08T03:24:46;28.25;;;13.85;;
840;SDS011;406;48.566;13.450;2024-03-08T03:27:13;22.90;;;14.88;;
840;SDS011;406;48.566;13.450;2024-03-08T03:29:42;31.23;;;18.27;;
840;SDS011;406;48.566;13.450;2024-03-08T03:32:12;28.58;;;14.38;;
840;SDS011;406;48.566;13.450;2024-03-08T03:34:39;34.47;;;18.25;;
840;SDS011;406;48.566;13.450;2024-03-08T03:37:10;28.98;;;18.58;;
840;SDS011;406;48.566;13.450;2024-03-08T03:39:39;32.28;;;18.33;;
840;SDS011;406;48.566;13.450;2024-03-08T03:42:15;28.38;;;15.07;;
840;SDS011;406;48.566;13.450;2024-03-08T03:44:48;30.42;;;18.77;;
840;SDS011;406;48.566;13.450;2024-03-08T03:47:15;37.53;;;20.52;;
840;SDS011;406;48.566;13.450;2024-03-08T03:49:42;24.50;;;12.70;;
840;SDS011;406;48.566;13.450;2024-03-08T03:52:09;26.35;;;12.52;;
840;SDS011;406;48.566;13.450;2024-03-08T03:54:36;28.98;;;13.70;;
840;SDS011;406;48.566;13.450;2024-03-08T03:57:03;29.67;;;17.33;;
840;SDS011;406;48.566;13.450;2024-03-08T03:59:30;29.40;;;16.42;;
840;SDS011;406;48.566;13.450;2024-03-08T04:01:56;33.20;;;17.05;;
840;SDS011;406;48.566;13.450;2024-03-08T04:04:23;29.95;;;13.75;;
840;SDS011;406;48.566;13.450;2024-03-08T04:06:51;29.77;;;16.27;;
840;SDS011;406;48.566;13.450;2024-03-08T04:09:17;42.92;;;24.85;;
840;SDS011;406;48.566;13.450;2024-03-08T04:11:48;35.88;;;21.85;;
840;SDS011;406;48.566;13.450;2024-03-08T04:14:16;32.40;;;17.13;;
840;SDS011;406;48.566;13.450;2024-03-08T04:16:43;42.97;;;25.77;;
840;SDS011;406;48.566;13.450;2024-03-08T04:19:09;31.17;;;19.50;;
840;SDS011;406;48.566;13.450;2024-03-08T04:21:36;32.75;;;19.52;;
840;SDS011;406;48.566;13.450;2024-03-08T04:24:02;31.45;;;19.92;;
840;SDS011;406;48.566;13.450;2024-03-08T04:26:29;26.08;;;16.75;;
840;SDS011;406;48.566;13.450;2024-03-08T04:28:56;36.17;;;18.58;;
840;SDS011;406;48.566;13.450;2024-03-08T04:31:22;25.27;;;15.15;;
840;SDS011;406;48.566;13.450;2024-03-08T04:33:49;36.63;;;20.27;;
840;SDS011;406;48.566;13.450;2024-03-08T04:36:15;39.90;;;23.88;;
840;SDS011;406;48.566;13.450;2024-03-08T04:38:42;24.88;;;15.50;;
840;SDS011;406;48.566;13.450;2024-03-08T04:41:08;19.15;;;13.68;;
840;SDS011;406;48.566;13.450;2024-03-08T04:43:35;27.45;;;14.70;;
840;SDS011;406;48.566;13.450;2024-03-08T04:46:02;29.58;;;14.40;;
840;SDS011;406;48.566;13.450;2024-03-08T04:48:29;27.45;;;15.98;;
840;SDS011;406;48.566;13.450;2024-03-08T04:50:56;29.63;;;13.55;;
840;SDS011;406;48.566;13.450;2024-03-08T04:53:23;37.13;;;23.30;;
840;SDS011;406;48.566;13.450;2024-03-08T04:55:50;26.25;;;15.00;;
840;SDS011;406;48.566;13.450;2024-03-08T04:58:16;29.52;;;13.73;;
840;SDS011;406;48.566;13.450;2024-03-08T05:00:43;28.33;;;12.80;;
840;SDS011;406;48.566;13.450;2024-03-08T05:03:10;24.90;;;13.15;;
840;SDS011;406;48.566;13.450;2024-03-08T05:05:36;27.55;;;15.10;;
840;SDS011;406;48.566;13.450;2024-03-08T05:08:03;24.77;;;13.40;;
840;SDS011;406;48.566;13.450;2024-03-08T05:10:30;40.13;;;20.92;;
840;SDS011;406;48.566;13.450;2024-03-08T05:12:56;25.88;;;15.23;;
840;SDS011;406;48.566;13.450;2024-03-08T05:15:23;25.00;;;14.15;;
840;SDS011;406;48.566;13.450;2024-03-08T05:17:49;29.85;;;14.50;;
840;SDS011;406;48.566;13.450;2024-03-08T05:20:16;35.83;;;19.20;;
840;SDS011;406;48.566;13.450;2024-03-08T05:22:43;36.72;;;21.15;;
840;SDS011;406;48.566;13.450;2024-03-08T05:25:10;27.48;;;15.05;;
840;SDS011;406;48.566;13.450;2024-03-08T05:27:37;35.47;;;19.90;;
840;SDS011;406;48.566;13.450;2024-03-08T05:30:04;27.00;;;14.95;;
840;SDS011;406;48.566;13.450;2024-03-08T05:32:35;32.58;;;14.93;;
840;SDS011;406;48.566;13.450;2024-03-08T05:35:01;26.77;;;14.18;;
840;SDS011;406;48.566;13.450;2024-03-08T05:37:33;22.08;;;12.85;;
840;SDS011;406;48.566;13.450;2024-03-08T05:39:59;43.25;;;16.70;;
840;SDS011;406;48.566;13.450;2024-03-08T05:42:26;22.70;;;13.27;;
840;SDS011;406;48.566;13.450;2024-03-08T05:44:54;26.75;;;15.85;;
840;SDS011;406;48.566;13.450;2024-03-08T05:47:23;31.63;;;14.40;;
840;SDS011;406;48.566;13.450;2024-03-08T05:49:51;35.20;;;20.70;;
840;SDS011;406;48.566;13.450;2024-03-08T05:52:19;42.38;;;19.75;;
840;SDS011;406;48.566;13.450;2024-03-08T05:54:46;37.90;;;18.48;;
840;SDS011;406;48.566;13.450;2024-03-08T05:57:13;28.35;;;14.88;;
840;SDS011;406;48.566;13.450;2024-03-08T05:59:40;30.27;;;14.10;;
840;SDS011;406;48.566;13.450;2024-03-08T06:02:07;34.20;;;16.92;;
840;SDS011;406;48.566;13.450;2024-03-08T06:04:33;31.63;;;18.40;;
840;SDS011;406;48.566;13.450;2024-03-08T06:07:00;36.53;;;21.00;;
840;SDS011;406;48.566;13.450;2024-03-08T06:09:29;34.60;;;21.02;;
840;SDS011;406;48.566;13.450;2024-03-08T06:11:56;31.63;;;16.70;;
840;SDS011;406;48.566;13.450;2024-03-08T06:14:23;27.95;;;16.85;;
840;SDS011;406;48.566;13.450;2024-03-08T06:16:50;37.08;;;19.05;;
840;SDS011;406;48.566;13.450;2024-03-08T06:19:17;32.20;;;18.38;;
840;SDS011;406;48.566;13.450;2024-03-08T06:21:43;40.28;;;24.20;;
840;SDS011;406;48.566;13.450;2024-03-08T06:24:10;33.83;;;19.40;;
840;SDS011;406;48.566;13.450;2024-03-08T06:26:36;46.53;;;27.27;;
840;SDS011;406;48.566;13.450;2024-03-08T06:29:05;41.42;;;23.10;;
840;SDS011;406;48.566;13.450;2024-03-08T06:31:34;32.08;;;19.42;;
840;SDS011;406;48.566;13.450;2024-03-08T06:34:05;36.22;;;17.20;;
840;SDS011;406;48.566;13.450;2024-03-08T06:36:34;26.98;;;15.77;;
840;SDS011;406;48.566;13.450;2024-03-08T06:39:01;31.30;;;15.25;;
840;SDS011;406;48.566;13.450;2024-03-08T06:41:27;33.97;;;16.25;;
840;SDS011;406;48.566;13.450;2024-03-08T06:43:54;28.15;;;14.52;;
840;SDS011;406;48.566;13.450;2024-03-08T06:46:24;27.77;;;15.57;;
840;SDS011;406;48.566;13.450;2024-03-08T06:48:51;31.63;;;16.13;;
840;SDS011;406;48.566;13.450;2024-03-08T06:51:17;30.75;;;15.32;;
840;SDS011;406;48.566;13.450;2024-03-08T06:53:44;31.30;;;17.40;;
840;SDS011;406;48.566;13.450;2024-03-08T06:56:11;50.38;;;27.95;;
840;SDS011;406;48.566;13.450;2024-03-08T06:58:38;46.97;;;16.77;;
840;SDS011;406;48.566;13.450;2024-03-08T07:01:04;26.38;;;15.80;;
840;SDS011;406;48.566;13.450;2024-03-08T07:03:34;35.88;;;19.20;;
840;SDS011;406;48.566;13.450;2024-03-08T07:06:00;28.92;;;14.35;;
840;SDS011;406;48.566;13.450;2024-03-08T07:08:29;35.28;;;16.95;;
840;SDS011;406;48.566;13.450;2024-03-08T07:10:56;33.13;;;15.82;;
840;SDS011;406;48.566;13.450;2024-03-08T07:13:24;36.05;;;16.45;;
840;SDS011;406;48.566;13.450;2024-03-08T07:15:51;31.95;;;16.42;;
840;SDS011;406;48.566;13.450;2024-03-08T07:18:18;28.90;;;16.75;;
840;SDS011;406;48.566;13.450;2024-03-08T07:20:45;38.83;;;16.65;;
840;SDS011;406;48.566;13.450;2024-03-08T07:23:12;34.15;;;17.90;;
840;SDS011;406;48.566;13.450;2024-03-08T07:25:58;31.10;;;16.80;;
840;SDS011;406;48.566;13.450;2024-03-08T07:28:27;31.35;;;17.13;;
840;SDS011;406;48.566;13.450;2024-03-08T07:30:53;46.28;;;19.88;;
840;SDS011;406;48.566;13.450;2024-03-08T07:33:34;46.58;;;23.48;;
840;SDS011;406;48.566;13.450;2024-03-08T07:36:01;55.65;;;32.05;;
840;SDS011;406;48.566;13.450;2024-03-08T07:38:27;34.40;;;17.88;;
840;SDS011;406;48.566;13.450;2024-03-08T07:40:54;38.95;;;19.00;;
840;SDS011;406;48.566;13.450;2024-03-08T07:43:20;36.47;;;19.02;;
840;SDS011;406;48.566;13.450;2024-03-08T07:45:48;34.17;;;20.02;;
840;SDS011;406;48.566;13.450;2024-03-08T07:48:14;38.17;;;18.27;;
840;SDS011;406;48.566;13.450;2024-03-08T07:50:42;35.83;;;16.73;;
840;SDS011;406;48.566;13.450;2024-03-08T07:53:10;36.63;;;17.88;;
840;SDS011;406;48.566;13.450;2024-03-08T07:55:36;44.50;;;19.90;;
840;SDS011;406;48.566;13.450;2024-03-08T07:58:03;40.08;;;21.20;;
840;SDS011;406;48.566;13.450;2024-03-08T08:00:30;49.87;;;22.57;;
840;SDS011;406;48.566;13.450;2024-03-08T08:03:00;34.17;;;18.17;;
840;SDS011;406;48.566;13.450;2024-03-08T08:05:27;35.67;;;20.50;;
840;SDS011;406;48.566;13.450;2024-03-08T08:07:54;31.50;;;17.27;;
840;SDS011;406;48.566;13.450;2024-03-08T08:10:20;39.53;;;19.50;;
840;SDS011;406;48.566;13.450;2024-03-08T08:12:52;32.43;;;16.50;;
840;SDS011;406;48.566;13.450;2024-03-08T08:15:19;32.10;;;18.08;;
840;SDS011;406;48.566;13.450;2024-03-08T08:17:45;36.85;;;16.50;;
840;SDS011;406;48.566;13.450;2024-03-08T08:20:12;26.73;;;15.17;;
840;SDS011;406;48.566;13.450;2024-03-08T08:22:39;22.37;;;12.90;;
840;SDS011;406;48.566;13.450;2024-03-08T08:25:07;21.20;;;11.32;;
840;SDS011;406;48.566;13.450;2024-03-08T08:27:34;17.67;;;12.03;;
840;SDS011;406;48.566;13.450;2024-03-08T08:30:03;21.30;;;11.63;;
840;SDS011;406;48.566;13.450;2024-03-08T08:32:34;16.53;;;10.50;;
840;SDS011;406;48.566;13.450;2024-03-08T08:35:02;21.57;;;9.93;;
840;SDS011;406;48.566;13.450;2024-03-08T08:37:32;16.73;;;9.57;;
840;SDS011;406;48.566;13.450;2024-03-08T08:39:58;14.77;;;9.60;;
840;SDS011;406;48.566;13.450;2024-03-08T08:42:31;17.57;;;10.40;;
840;SDS011;406;48.566;13.450;2024-03-08T08:44:58;13.40;;;8.93;;
840;SDS011;406;48.566;13.450;2024-03-08T08:47:37;16.93;;;9.83;;
840;SDS011;406;48.566;13.450;2024-03-08T08:50:04;18.20;;;10.17;;
840;SDS011;406;48.566;13.450;2024-03-08T08:52:31;11.43;;;7.40;;
840;SDS011;406;48.566;13.450;2024-03-08T08:54:58;11.93;;;8.80;;
840;SDS011;406;48.566;13.450;2024-03-08T08:57:25;13.33;;;8.97;;
840;SDS011;406;48.566;13.450;2024-03-08T08:59:52;13.17;;;8.90;;
840;SDS011;406;48.566;13.450;2024-03-08T09:02:19;14.80;;;8.23;;
840;SDS011;406;48.566;13.450;2024-03-08T09:04:47;18.20;;;9.27;;
840;SDS011;406;48.566;13.450;2024-03-08T09:07:17;12.33;;;7.70;;
840;SDS011;406;48.566;13.450;2024-03-08T09:09:45;13.97;;;8.83;;
840;SDS011;406;48.566;13.450;2024-03-08T09:12:11;10.33;;;7.60;;
840;SDS011;406;48.566;13.450;2024-03-08T09:14:40;11.13;;;7.50;;
840;SDS011;406;48.566;13.450;2024-03-08T09:17:07;10.50;;;8.07;;
840;SDS011;406;48.566;13.450;2024-03-08T09:19:37;11.50;;;8.00;;
840;SDS011;406;48.566;13.450;2024-03-08T09:22:04;12.83;;;7.63;;
840;SDS011;406;48.566;13.450;2024-03-08T09:24:31;12.07;;;6.87;;
840;SDS011;406;48.566;13.450;2024-03-08T09:26:57;12.73;;;6.23;;
840;SDS011;406;48.566;13.450;2024-03-08T09:29:27;11.13;;;7.20;;
840;SDS011;406;48.566;13.450;2024-03-08T09:31:53;9.97;;;6.80;;
840;SDS011;406;48.566;13.450;2024-03-08T09:34:20;12.33;;;6.60;;
840;SDS011;406;48.566;13.450;2024-03-08T09:36:54;9.27;;;6.00;;
840;SDS011;406;48.566;13.450;2024-03-08T09:39:20;9.83;;;7.50;;
840;SDS011;406;48.566;13.450;2024-03-08T09:41:49;9.83;;;6.50;;
840;SDS011;406;48.566;13.450;2024-03-08T09:44:16;10.57;;;6.80;;
840;SDS011;406;48.566;13.450;2024-03-08T09:46:42;13.17;;;8.27;;
840;SDS011;406;48.566;13.450;2024-03-08T09:49:09;10.10;;;7.13;;
840;SDS011;406;48.566;13.450;2024-03-08T09:51:37;12.30;;;7.23;;
840;SDS011;406;48.566;13.450;2024-03-08T09:54:06;10.80;;;7.03;;
840;SDS011;406;48.566;13.450;2024-03-08T09:56:45;9.67;;;6.37;;
840;SDS011;406;48.566;13.450;2024-03-08T09:59:13;9.73;;;6.33;;
840;SDS011;406;48.566;13.450;2024-03-08T10:02:06;9.67;;;5.93;;
840;SDS011;406;48.566;13.450;2024-03-08T10:04:35;12.33;;;7.47;;
840;SDS011;406;48.566;13.450;2024-03-08T10:07:02;9.30;;;6.90;;
840;SDS011;406;48.566;13.450;2024-03-08T10:09:28;10.23;;;7.30;;
840;SDS011;406;48.566;13.450;2024-03-08T10:11:58;10.93;;;8.03;;
840;SDS011;406;48.566;13.450;2024-03-08T10:14:25;11.33;;;7.13;;
840;SDS011;406;48.566;13.450;2024-03-08T10:16:54;9.87;;;7.70;;
840;SDS011;406;48.566;13.450;2024-03-08T10:19:26;12.93;;;7.80;;
840;SDS011;406;48.566;13.450;2024-03-08T10:21:56;8.23;;;5.50;;
840;SDS011;406;48.566;13.450;2024-03-08T10:24:25;7.27;;;6.03;;
840;SDS011;406;48.566;13.450;2024-03-08T10:26:52;6.70;;;5.60;;
840;SDS011;406;48.566;13.450;2024-03-08T10:29:20;10.17;;;5.33;;
840;SDS011;406;48.566;13.450;2024-03-08T10:31:46;7.23;;;4.70;;
840;SDS011;406;48.566;13.450;2024-03-08T10:34:13;7.57;;;5.30;;
840;SDS011;406;48.566;13.450;2024-03-08T10:36:39;7.83;;;5.67;;
840;SDS011;406;48.566;13.450;2024-03-08T10:39:28;7.27;;;4.70;;
840;SDS011;406;48.566;13.450;2024-03-08T10:41:56;8.10;;;5.60;;
840;SDS011;406;48.566;13.450;2024-03-08T10:47:09;7.77;;;5.00;;
840;SDS011;406;48.566;13.450;2024-03-08T10:49:55;6.27;;;4.53;;
840;SDS011;406;48.566;13.450;2024-03-08T10:52:43;7.77;;;5.77;;
840;SDS011;406;48.566;13.450;2024-03-08T10:55:10;7.53;;;5.67;;
840;SDS011;406;48.566;13.450;2024-03-08T10:57:39;7.77;;;5.40;;
840;SDS011;406;48.566;13.450;2024-03-08T11:00:07;8.57;;;5.40;;
840;SDS011;406;48.566;13.450;2024-03-08T11:02:37;7.90;;;5.20;;
840;SDS011;406;48.566;13.450;2024-03-08T11:05:04;8.97;;;6.03;;
840;SDS011;406;48.566;13.450;2024-03-08T11:07:34;8.03;;;6.17;;
840;SDS011;406;48.566;13.450;2024-03-08T11:10:04;6.73;;;5.47;;
840;SDS011;406;48.566;13.450;2024-03-08T11:12:37;7.73;;;5.93;;
840;SDS011;406;48.566;13.450;2024-03-08T11:15:09;9.10;;;7.00;;
840;SDS011;406;48.566;13.450;2024-03-08T11:20:13;9.80;;;6.37;;
840;SDS011;406;48.566;13.450;2024-03-08T11:22:50;9.40;;;6.37;;
840;SDS011;406;48.566;13.450;2024-03-08T11:28:11;8.77;;;6.27;;
840;SDS011;406;48.566;13.450;2024-03-08T11:33:28;6.37;;;4.60;;
840;SDS011;406;48.566;13.450;2024-03-08T11:38:41;8.93;;;5.67;;
840;SDS011;406;48.566;13.450;2024-03-08T11:41:08;6.80;;;5.90;;
840;SDS011;406;48.566;13.450;2024-03-08T11:43:35;6.90;;;5.20;;
840;SDS011;406;48.566;13.450;2024-03-08T11:46:11;7.10;;;4.80;;
840;SDS011;406;48.566;13.450;2024-03-08T11:48:41;8.10;;;5.07;;
840;SDS011;406;48.566;13.450;2024-03-08T11:51:08;7.57;;;5.23;;
840;SDS011;406;48.566;13.450;2024-03-08T11:53:36;6.27;;;5.17;;
840;SDS011;406;48.566;13.450;2024-03-08T11:56:12;6.77;;;5.10;;
840;SDS011;406;48.566;13.450;2024-03-08T11:58:40;7.13;;;5.70;;
840;SDS011;406;48.566;13.450;2024-03-08T12:01:07;7.23;;;4.60;;
840;SDS011;406;48.566;13.450;2024-03-08T12:03:39;7.83;;;4.97;;
840;SDS011;406;48.566;13.450;2024-03-08T12:06:09;7.20;;;4.20;;
840;SDS011;406;48.566;13.450;2024-03-08T12:08:41;7.20;;;5.20;;
840;SDS011;406;48.566;13.450;2024-03-08T12:11:08;8.00;;;4.53;;
840;SDS011;406;48.566;13.450;2024-03-08T12:13:36;7.00;;;5.43;;
840;SDS011;406;48.566;13.450;2024-03-08T12:16:03;6.63;;;5.13;;
840;SDS011;406;48.566;13.450;2024-03-08T12:18:34;6.00;;;5.03;;
840;SDS011;406;48.566;13.450;2024-03-08T12:21:07;5.80;;;4.60;;
840;SDS011;406;48.566;13.450;2024-03-08T12:23:35;6.13;;;4.60;;
840;SDS011;406;48.566;13.450;2024-03-08T12:26:14;6.83;;;4.67;;
840;SDS011;406;48.566;13.450;2024-03-08T12:28:42;4.90;;;4.20;;
840;SDS011;406;48.566;13.450;2024-03-08T12:31:14;7.90;;;4.23;;
840;SDS011;406;48.566;13.450;2024-03-08T12:33:53;5.30;;;3.83;;
840;SDS011;406;48.566;13.450;2024-03-08T12:36:23;5.87;;;4.30;;
840;SDS011;406;48.566;13.450;2024-03-08T12:38:50;6.47;;;4.43;;
840;SDS011;406;48.566;13.450;2024-03-08T12:41:18;4.33;;;3.60;;
840;SDS011;406;48.566;13.450;2024-03-08T12:43:45;5.20;;;3.60;;
840;SDS011;406;48.566;13.450;2024-03-08T12:46:18;7.23;;;4.70;;
840;SDS011;406;48.566;13.450;2024-03-08T12:48:49;7.43;;;4.63;;
840;SDS011;406;48.566;13.450;2024-03-08T12:51:16;5.87;;;3.73;;
840;SDS011;406;48.566;13.450;2024-03-08T12:53:44;6.03;;;5.00;;
840;SDS011;406;48.566;13.450;2024-03-08T12:56:12;7.37;;;4.63;;
840;SDS011;406;48.566;13.450;2024-03-08T12:58:39;6.20;;;4.57;;
840;SDS011;406;48.566;13.450;2024-03-08T13:01:06;5.80;;;4.07;;
840;SDS011;406;48.566;13.450;2024-03-08T13:03:36;7.73;;;4.67;;
840;SDS011;406;48.566;13.450;2024-03-08T13:06:03;6.67;;;4.60;;
840;SDS011;406;48.566;13.450;2024-03-08T13:08:37;6.73;;;4.17;;
840;SDS011;406;48.566;13.450;2024-03-08T13:11:07;4.60;;;3.77;;
840;SDS011;406;48.566;13.450;2024-03-08T13:13:34;5.70;;;4.33;;
840;SDS011;406;48.566;13.450;2024-03-08T13:16:06;6.17;;;4.50;;
840;SDS011;406;48.566;13.450;2024-03-08T13:18:36;5.63;;;4.30;;
840;SDS011;406;48.566;13.450;2024-03-08T13:21:03;8.03;;;4.77;;
840;SDS011;406;48.566;13.450;2024-03-08T13:23:36;5.60;;;4.83;;
840;SDS011;406;48.566;13.450;2024-03-08T13:26:10;6.40;;;5.10;;
840;SDS011;406;48.566;13.450;2024-03-08T13:28:50;5.57;;;4.03;;
840;SDS011;406;48.566;13.450;2024-03-08T13:31:20;7.40;;;3.97;;
840;SDS011;406;48.566;13.450;2024-03-08T13:33:47;5.43;;;4.57;;
840;SDS011;406;48.566;13.450;2024-03-08T13:36:14;4.60;;;4.13;;
840;SDS011;406;48.566;13.450;2024-03-08T13:38:45;6.73;;;4.53;;
840;SDS011;406;48.566;13.450;2024-03-08T13:41:14;6.73;;;4.57;;
840;SDS011;406;48.566;13.450;2024-03-08T13:43:45;5.47;;;3.80;;
840;SDS011;406;48.566;13.450;2024-03-08T13:46:13;5.23;;;4.30;;
840;SDS011;406;48.566;13.450;2024-03-08T13:48:40;6.63;;;4.87;;
840;SDS011;406;48.566;13.450;2024-03-08T13:51:07;5.73;;;4.40;;
840;SDS011;406;48.566;13.450;2024-03-08T13:53:39;6.50;;;4.33;;
840;SDS011;406;48.566;13.450;2024-03-08T13:56:06;5.10;;;3.80;;
840;SDS011;406;48.566;13.450;2024-03-08T13:58:37;4.20;;;3.70;;
840;SDS011;406;48.566;13.450;2024-03-08T14:01:03;4.80;;;3.70;;
840;SDS011;406;48.566;13.450;2024-03-08T14:03:32;6.60;;;3.20;;
840;SDS011;406;48.566;13.450;2024-03-08T14:05:59;5.00;;;3.67;;
840;SDS011;406;48.566;13.450;2024-03-08T14:08:26;6.07;;;3.87;;
840;SDS011;406;48.566;13.450;2024-03-08T14:10:53;5.97;;;3.80;;
840;SDS011;406;48.566;13.450;2024-03-08T14:13:20;4.23;;;2.83;;
840;SDS011;406;48.566;13.450;2024-03-08T14:15:47;5.77;;;3.80;;
840;SDS011;406;48.566;13.450;2024-03-08T14:18:14;3.80;;;3.30;;
840;SDS011;406;48.566;13.450;2024-03-08T14:20:41;5.97;;;3.80;;
840;SDS011;406;48.566;13.450;2024-03-08T14:23:08;5.07;;;3.60;;
840;SDS011;406;48.566;13.450;2024-03-08T14:25:35;5.57;;;3.57;;
840;SDS011;406;48.566;13.450;2024-03-08T14:28:02;4.53;;;3.77;;
840;SDS011;406;48.566;13.450;2024-03-08T14:30:33;5.60;;;3.80;;
840;SDS011;406;48.566;13.450;2024-03-08T14:33:01;5.73;;;4.23;;
840;SDS011;406;48.566;13.450;2024-03-08T14:35:29;6.80;;;4.23;;
840;SDS011;406;48.566;13.450;2024-03-08T14:37:56;6.47;;;4.50;;
840;SDS011;406;48.566;13.450;2024-03-08T14:40:26;5.50;;;4.03;;
840;SDS011;406;48.566;13.450;2024-03-08T14:42:53;4.87;;;3.70;;
840;SDS011;406;48.566;13.450;2024-03-08T14:45:20;4.70;;;3.57;;
840;SDS011;406;48.566;13.450;2024-03-08T14:47:47;5.70;;;4.80;;
840;SDS011;406;48.566;13.450;2024-03-08T14:50:19;5.17;;;3.70;;
840;SDS011;406;48.566;13.450;2024-03-08T14:52:47;4.00;;;3.50;;
840;SDS011;406;48.566;13.450;2024-03-08T14:55:15;4.70;;;3.70;;
840;SDS011;406;48.566;13.450;2024-03-08T14:57:42;5.27;;;4.50;;
840;SDS011;406;48.566;13.450;2024-03-08T15:00:11;7.63;;;5.23;;
840;SDS011;406;48.566;13.450;2024-03-08T15:03:01;6.20;;;5.10;;
840;SDS011;406;48.566;13.450;2024-03-08T15:05:34;5.17;;;4.57;;
840;SDS011;406;48.566;13.450;2024-03-08T15:08:04;6.13;;;5.00;;
840;SDS011;406;48.566;13.450;2024-03-08T15:10:37;5.20;;;4.70;;
840;SDS011;406;48.566;13.450;2024-03-08T15:13:05;5.70;;;4.83;;
840;SDS011;406;48.566;13.450;2024-03-08T15:15:41;5.37;;;4.80;;
840;SDS011;406;48.566;13.450;2024-03-08T15:18:09;7.57;;;4.67;;
840;SDS011;406;48.566;13.450;2024-03-08T15:20:37;6.00;;;4.73;;
840;SDS011;406;48.566;13.450;2024-03-08T15:23:03;5.10;;;4.40;;
840;SDS011;406;48.566;13.450;2024-03-08T15:25:30;5.70;;;4.77;;
840;SDS011;406;48.566;13.450;2024-03-08T15:27:57;7.20;;;4.77;;
840;SDS011;406;48.566;13.450;2024-03-08T15:30:24;5.90;;;4.70;;
840;SDS011;406;48.566;13.450;2024-03-08T15:32:55;4.63;;;3.90;;